createdAt,value
2022-10-15T00:01:08.838Z,28.03
2022-10-15T00:03:38.785Z,27.13
2022-10-15T00:06:09.934Z,27.17
2022-10-15T00:08:38.413Z,26.97
2022-10-15T00:11:09.613Z,27.03
2022-10-15T00:13:37.849Z,27.83
2022-10-15T00:16:08.173Z,29.23
2022-10-15T00:18:36.385Z,27.23
2022-10-15T00:21:09.265Z,29.20
2022-10-15T00:23:37.617Z,29.43
2022-10-15T00:26:07.388Z,29.70
2022-10-15T00:28:35.622Z,28.80
2022-10-15T00:31:05.655Z,29.53
2022-10-15T00:33:33.584Z,33.87
2022-10-15T00:36:03.224Z,33.50
2022-10-15T00:38:32.523Z,34.17
2022-10-15T00:41:00.831Z,34.83
2022-10-15T00:43:43.833Z,35.67
2022-10-15T00:46:23.368Z,35.50
2022-10-15T00:48:56.768Z,33.17
2022-10-15T00:51:27.726Z,33.20
2022-10-15T00:53:57.419Z,33.70
2022-10-15T00:56:27.776Z,33.70
2022-10-15T00:58:57.125Z,33.60
2022-10-15T01:01:25.822Z,33.97
2022-10-15T01:03:55.552Z,32.07
2022-10-15T01:06:24.065Z,32.33
2022-10-15T01:08:52.640Z,30.70
2022-10-15T01:11:31.733Z,30.13
2022-10-15T01:14:12.263Z,29.83
2022-10-15T01:16:47.082Z,28.23
2022-10-15T01:19:28.356Z,30.43
2022-10-15T01:22:02.962Z,30.33
2022-10-15T01:24:50.060Z,30.10
2022-10-15T01:27:29.710Z,31.03
2022-10-15T01:30:21.698Z,30.93
2022-10-15T01:33:09.905Z,30.40
2022-10-15T01:35:47.848Z,29.80
2022-10-15T01:38:27.696Z,31.80
2022-10-15T01:40:59.284Z,28.60
2022-10-15T01:43:34.078Z,29.37
2022-10-15T01:46:07.496Z,32.97
2022-10-15T01:48:38.284Z,29.70
2022-10-15T01:51:07.926Z,30.20
2022-10-15T01:53:37.531Z,29.67
2022-10-15T01:56:08.659Z,30.00
2022-10-15T01:58:40.152Z,28.40
2022-10-15T02:01:09.521Z,26.60
2022-10-15T02:03:46.540Z,26.63
2022-10-15T02:06:20.903Z,29.67
2022-10-15T02:09:08.362Z,26.37
2022-10-15T02:11:46.927Z,26.73
2022-10-15T02:14:21.011Z,28.20
2022-10-15T02:16:56.894Z,26.40
2022-10-15T02:19:31.599Z,25.53
2022-10-15T02:22:06.482Z,26.10
2022-10-15T02:24:37.607Z,24.57
2022-10-15T02:27:07.288Z,24.90
2022-10-15T02:29:37.147Z,22.83
2022-10-15T02:32:08.301Z,25.60
2022-10-15T02:34:37.490Z,25.07
2022-10-15T02:37:08.398Z,23.57
2022-10-15T02:39:36.386Z,26.20
2022-10-15T02:42:05.252Z,28.20
2022-10-15T02:44:33.538Z,24.97
2022-10-15T02:47:01.470Z,26.87
2022-10-15T02:49:30.698Z,22.97
2022-10-15T02:51:59.217Z,25.57
2022-10-15T02:54:27.182Z,24.37
2022-10-15T02:56:55.045Z,24.50
2022-10-15T02:59:22.942Z,24.53
2022-10-15T03:01:51.001Z,24.03
2022-10-15T03:04:19.014Z,24.03
2022-10-15T03:06:48.493Z,23.33
2022-10-15T03:09:16.386Z,24.37
2022-10-15T03:11:44.281Z,22.97
2022-10-15T03:14:12.614Z,22.53
2022-10-15T03:16:40.514Z,23.77
2022-10-15T03:19:08.602Z,23.53
2022-10-15T03:21:36.478Z,25.27
2022-10-15T03:24:06.298Z,24.43
2022-10-15T03:26:34.234Z,25.60
2022-10-15T03:29:02.145Z,25.97
2022-10-15T03:31:30.042Z,27.90
2022-10-15T03:33:57.925Z,26.53
2022-10-15T03:36:25.822Z,26.53
2022-10-15T03:38:53.709Z,27.37
2022-10-15T03:41:22.987Z,30.00
2022-10-15T03:43:50.866Z,27.27
2022-10-15T03:46:18.749Z,26.63
2022-10-15T03:48:50.354Z,26.73
2022-10-15T03:51:22.073Z,26.63
2022-10-15T03:53:53.397Z,26.57
2022-10-15T03:56:22.877Z,27.03
2022-10-15T03:58:50.986Z,27.17
2022-10-15T04:01:20.183Z,26.93
2022-10-15T04:03:48.308Z,28.63
2022-10-15T04:06:16.185Z,29.83
2022-10-15T04:08:44.096Z,28.80
2022-10-15T04:11:12.080Z,28.70
2022-10-15T04:13:41.376Z,29.40
2022-10-15T04:16:09.348Z,28.10
2022-10-15T04:18:37.239Z,28.23
2022-10-15T04:21:05.616Z,27.20
2022-10-15T04:23:33.529Z,30.60
2022-10-15T04:26:01.919Z,30.57
2022-10-15T04:28:30.271Z,29.70
2022-10-15T04:31:00.276Z,29.63
2022-10-15T04:33:28.707Z,29.07
2022-10-15T04:36:01.480Z,31.63
2022-10-15T04:38:29.459Z,31.20
2022-10-15T04:41:02.688Z,29.77
2022-10-15T04:43:30.764Z,31.23
2022-10-15T04:46:01.443Z,29.67
2022-10-15T04:48:30.547Z,29.47
2022-10-15T04:51:04.788Z,30.33
2022-10-15T04:53:33.052Z,31.07
2022-10-15T04:56:05.310Z,30.63
2022-10-15T04:58:33.919Z,28.47
2022-10-15T05:01:05.669Z,30.13
2022-10-15T05:03:36.457Z,29.03
2022-10-15T05:06:09.474Z,29.43
2022-10-15T05:08:41.790Z,28.30
2022-10-15T05:11:12.326Z,32.13
2022-10-15T05:13:40.256Z,30.40
2022-10-15T05:16:15.713Z,30.87
2022-10-15T05:18:46.108Z,30.17
2022-10-15T05:21:14.579Z,30.97
2022-10-15T05:23:44.050Z,30.97
2022-10-15T05:26:14.322Z,31.10
2022-10-15T05:28:42.501Z,31.23
2022-10-15T05:31:18.339Z,30.20
2022-10-15T05:33:47.155Z,32.87
2022-10-15T05:36:18.113Z,30.20
2022-10-15T05:38:46.104Z,33.03
2022-10-15T05:41:14.057Z,31.47
2022-10-15T05:43:42.160Z,31.63
2022-10-15T05:46:10.609Z,32.37
2022-10-15T05:48:39.902Z,32.20
2022-10-15T05:51:11.482Z,32.83
2022-10-15T05:53:40.539Z,33.70
2022-10-15T05:56:09.146Z,33.90
2022-10-15T05:58:37.838Z,32.73
2022-10-15T06:01:07.585Z,32.43
2022-10-15T06:03:36.153Z,31.60
2022-10-15T06:06:05.833Z,32.33
2022-10-15T06:08:33.887Z,33.10
2022-10-15T06:11:08.323Z,32.03
2022-10-15T06:13:39.103Z,31.53
2022-10-15T06:16:07.585Z,32.27
2022-10-15T06:18:35.869Z,31.57
2022-10-15T06:21:05.647Z,32.40
2022-10-15T06:23:33.673Z,32.47
2022-10-15T06:26:04.256Z,32.70
2022-10-15T06:28:32.363Z,32.93
2022-10-15T06:31:00.755Z,30.90
2022-10-15T06:33:29.245Z,31.17
2022-10-15T06:35:57.217Z,31.27
2022-10-15T06:38:26.517Z,30.00
2022-10-15T06:40:54.422Z,29.17
2022-10-15T06:43:22.350Z,30.27
2022-10-15T06:45:50.229Z,29.10
2022-10-15T06:48:18.698Z,30.27
2022-10-15T06:50:46.757Z,29.03
2022-10-15T06:53:14.674Z,28.93
2022-10-15T06:55:44.187Z,28.93
2022-10-15T06:58:12.074Z,28.07
2022-10-15T07:00:39.987Z,28.03
2022-10-15T07:03:08.945Z,27.83
2022-10-15T07:05:37.013Z,27.67
2022-10-15T07:08:05.161Z,26.03
2022-10-15T07:10:33.158Z,27.33
2022-10-15T07:13:03.085Z,26.57
2022-10-15T07:15:31.028Z,25.97
2022-10-15T07:18:01.566Z,26.20
2022-10-15T07:20:30.421Z,27.33
2022-10-15T07:22:59.533Z,26.77
2022-10-15T07:25:28.187Z,27.83
2022-10-15T07:27:56.877Z,25.87
2022-10-15T07:30:28.480Z,24.67
2022-10-15T07:32:57.544Z,25.77
2022-10-15T07:35:25.792Z,26.33
2022-10-15T07:37:53.684Z,26.67
2022-10-15T07:40:21.846Z,25.43
2022-10-15T07:42:54.235Z,25.77
2022-10-15T07:45:22.448Z,27.30
2022-10-15T07:47:51.801Z,27.47
2022-10-15T07:50:20.188Z,26.93
2022-10-15T07:52:48.420Z,25.43
2022-10-15T07:55:16.436Z,24.50
2022-10-15T07:57:44.377Z,26.43
2022-10-15T08:00:13.357Z,26.77
2022-10-15T08:02:41.494Z,25.10
2022-10-15T08:05:11.072Z,24.60
2022-10-15T08:07:39.004Z,23.60
2022-10-15T08:10:07.954Z,24.03
2022-10-15T08:12:35.828Z,24.97
2022-10-15T08:15:03.900Z,23.20
2022-10-15T08:17:32.323Z,21.23
2022-10-15T08:20:00.219Z,23.43
2022-10-15T08:22:29.438Z,23.97
2022-10-15T08:24:57.359Z,22.83
2022-10-15T08:27:25.289Z,21.13
2022-10-15T08:29:53.202Z,22.87
2022-10-15T08:32:21.459Z,21.60
2022-10-15T08:34:49.451Z,21.03
2022-10-15T08:37:17.360Z,21.60
2022-10-15T08:39:46.845Z,22.07
2022-10-15T08:42:20.844Z,21.07
2022-10-15T08:44:53.115Z,21.97
2022-10-15T08:47:30.032Z,21.17
2022-10-15T08:49:59.831Z,20.40
2022-10-15T08:52:35.107Z,22.67
2022-10-15T08:55:04.863Z,21.07
2022-10-15T08:57:41.187Z,23.23
2022-10-15T09:00:18.138Z,22.43
2022-10-15T09:02:53.538Z,21.50
2022-10-15T09:05:33.122Z,22.70
2022-10-15T09:08:07.606Z,25.07
2022-10-15T09:10:44.517Z,23.13
2022-10-15T09:13:16.609Z,23.80
2022-10-15T09:15:51.745Z,23.03
2022-10-15T09:18:23.832Z,21.80
2022-10-15T09:20:53.250Z,21.47
2022-10-15T09:23:24.034Z,21.63
2022-10-15T09:26:03.302Z,21.63
2022-10-15T09:28:40.821Z,22.03
2022-10-15T09:31:11.269Z,22.10
2022-10-15T09:33:44.061Z,21.93
2022-10-15T09:36:22.989Z,21.60
2022-10-15T09:39:02.486Z,22.00
2022-10-15T09:41:40.865Z,20.33
2022-10-15T09:44:14.044Z,21.00
2022-10-15T09:46:46.494Z,20.90
2022-10-15T09:49:19.410Z,24.37
2022-10-15T09:51:55.732Z,22.67
2022-10-15T09:54:29.877Z,20.83
2022-10-15T09:56:59.386Z,19.33
2022-10-15T09:59:28.124Z,20.37
2022-10-15T10:02:01.654Z,19.83
2022-10-15T10:04:31.661Z,20.67
2022-10-15T10:07:01.855Z,20.57
2022-10-15T10:09:34.129Z,19.67
2022-10-15T10:12:07.302Z,19.23
2022-10-15T10:14:37.869Z,19.77
2022-10-15T10:17:16.208Z,22.17
2022-10-15T10:19:45.325Z,20.97
2022-10-15T10:22:17.364Z,23.17
2022-10-15T10:24:46.008Z,22.17
2022-10-15T10:27:23.040Z,20.43
2022-10-15T10:29:56.412Z,23.57
2022-10-15T10:32:29.337Z,21.53
2022-10-15T10:34:57.553Z,22.50
2022-10-15T10:37:26.102Z,21.93
2022-10-15T10:39:56.614Z,20.30
2022-10-15T10:42:31.838Z,21.80
2022-10-15T10:45:18.793Z,23.17
2022-10-15T10:47:47.448Z,22.83
2022-10-15T10:50:34.590Z,27.17
2022-10-15T10:53:21.337Z,23.17
2022-10-15T10:55:50.505Z,20.07
2022-10-15T10:58:26.286Z,20.63
2022-10-15T11:00:56.548Z,21.40
2022-10-15T11:03:32.852Z,21.67
2022-10-15T11:06:13.294Z,24.27
2022-10-15T11:08:49.049Z,22.83
2022-10-15T11:11:26.272Z,20.63
2022-10-15T11:14:04.850Z,20.67
2022-10-15T11:16:39.256Z,21.17
2022-10-15T11:22:36.072Z,20.73
2022-10-15T11:25:15.022Z,20.67
2022-10-15T11:27:54.289Z,19.70
2022-10-15T11:30:36.076Z,21.63
2022-10-15T11:33:18.255Z,20.07
2022-10-15T11:35:54.030Z,18.10
2022-10-15T11:38:31.042Z,19.80
2022-10-15T11:41:15.763Z,19.60
2022-10-15T11:43:59.223Z,19.00
2022-10-15T11:46:31.900Z,17.97
2022-10-15T11:49:13.347Z,18.87
2022-10-15T11:52:00.335Z,20.40
2022-10-15T11:54:36.039Z,21.37
2022-10-15T11:57:06.051Z,22.73
2022-10-15T11:59:40.088Z,27.00
2022-10-15T12:02:15.015Z,22.00
2022-10-15T12:04:47.671Z,21.17
2022-10-15T12:07:21.398Z,20.30
2022-10-15T12:09:54.523Z,22.40
2022-10-15T12:12:38.460Z,19.30
2022-10-15T12:15:22.532Z,19.97
2022-10-15T12:17:56.719Z,19.63
2022-10-15T12:20:25.339Z,20.27
2022-10-15T12:22:58.663Z,18.43
2022-10-15T12:25:42.451Z,17.67
2022-10-15T12:28:17.736Z,17.47
2022-10-15T12:30:56.086Z,17.77
2022-10-15T12:33:48.298Z,19.57
2022-10-15T12:36:28.283Z,18.83
2022-10-15T12:39:00.427Z,19.80
2022-10-15T12:41:41.275Z,18.57
2022-10-15T12:44:18.039Z,17.57
2022-10-15T12:46:46.007Z,18.17
2022-10-15T12:49:59.226Z,18.63
2022-10-15T12:52:56.814Z,17.40
2022-10-15T12:55:28.545Z,18.13
2022-10-15T12:58:02.142Z,17.47
2022-10-15T13:00:37.742Z,17.50
2022-10-15T13:03:35.423Z,23.90
2022-10-15T13:06:31.417Z,23.00
2022-10-15T13:09:06.618Z,25.63
2022-10-15T13:11:38.108Z,17.97
2022-10-15T13:14:18.737Z,19.43
2022-10-15T13:16:47.779Z,16.60
2022-10-15T13:19:19.871Z,19.87
2022-10-15T13:21:54.440Z,19.77
2022-10-15T13:24:23.930Z,17.33
2022-10-15T13:26:52.683Z,19.10
2022-10-15T13:29:23.179Z,22.47
2022-10-15T13:31:52.173Z,16.60
2022-10-15T13:34:28.337Z,18.67
2022-10-15T13:37:01.327Z,18.07
2022-10-15T13:42:11.274Z,18.17
2022-10-15T13:44:39.204Z,19.37
2022-10-15T13:47:25.646Z,17.57
2022-10-15T13:50:11.281Z,22.43
2022-10-15T13:52:42.500Z,19.83
2022-10-15T13:55:20.729Z,22.37
2022-10-15T13:57:51.027Z,21.00
2022-10-15T14:00:25.222Z,23.73
2022-10-15T14:03:16.937Z,22.43
2022-10-15T14:05:46.118Z,20.57
2022-10-15T14:08:27.608Z,19.83
2022-10-15T14:10:58.244Z,19.57
2022-10-15T14:13:26.861Z,21.33
2022-10-15T14:18:37.489Z,18.63
2022-10-15T14:21:11.421Z,20.03
2022-10-15T14:23:41.669Z,22.57
2022-10-15T14:26:10.826Z,24.17
2022-10-15T14:28:39.475Z,20.33
2022-10-15T14:31:08.715Z,22.53
2022-10-15T14:33:45.734Z,40.17
2022-10-15T14:36:29.108Z,22.07
2022-10-15T14:39:26.349Z,19.67
2022-10-15T14:42:02.324Z,19.50
2022-10-15T14:44:42.927Z,19.83
2022-10-15T14:47:21.213Z,18.47
2022-10-15T14:49:50.256Z,19.87
2022-10-15T14:52:20.635Z,26.77
2022-10-15T14:55:00.545Z,27.90
2022-10-15T14:57:31.528Z,19.83
2022-10-15T15:00:00.770Z,21.63
2022-10-15T15:02:30.720Z,22.20
2022-10-15T15:05:10.336Z,20.37
2022-10-15T15:07:38.932Z,24.27
2022-10-15T15:10:09.904Z,22.10
2022-10-15T15:12:40.445Z,23.30
2022-10-15T15:15:15.057Z,21.50
2022-10-15T15:17:43.372Z,23.20
2022-10-15T15:20:12.378Z,26.60
2022-10-15T15:22:41.083Z,108.67
2022-10-15T15:25:15.721Z,38.40
2022-10-15T15:27:43.659Z,25.47
2022-10-15T15:30:17.108Z,25.80
2022-10-15T15:32:45.000Z,36.30
2022-10-15T15:35:21.856Z,33.63
2022-10-15T15:37:49.755Z,26.57
2022-10-15T15:40:19.751Z,21.87
2022-10-15T15:42:49.024Z,21.70
2022-10-15T15:45:20.827Z,23.23
2022-10-15T15:47:49.021Z,21.60
2022-10-15T15:50:17.857Z,28.33
2022-10-15T15:52:45.814Z,24.40
2022-10-15T15:55:14.968Z,22.83
2022-10-15T15:57:45.323Z,23.50
2022-10-15T16:00:14.422Z,22.67
2022-10-15T16:02:42.532Z,20.73
2022-10-15T16:05:13.691Z,21.80
2022-10-15T16:07:42.572Z,27.47
2022-10-15T16:10:12.045Z,23.93
2022-10-15T16:12:40.331Z,23.93
2022-10-15T16:15:13.547Z,23.77
2022-10-15T16:17:42.867Z,23.73
2022-10-15T16:20:12.140Z,24.93
2022-10-15T16:22:40.478Z,27.13
2022-10-15T16:25:09.619Z,26.43
2022-10-15T16:27:37.548Z,24.17
2022-10-15T16:30:06.291Z,21.73
2022-10-15T16:32:35.619Z,21.17
2022-10-15T16:35:03.561Z,21.40
2022-10-15T16:37:31.435Z,20.53
2022-10-15T16:39:59.390Z,20.70
2022-10-15T16:42:27.286Z,19.83
2022-10-15T16:44:55.182Z,19.80
2022-10-15T16:47:23.372Z,18.77
2022-10-15T16:49:53.562Z,25.77
2022-10-15T16:52:21.452Z,27.43
2022-10-15T16:54:49.356Z,23.13
2022-10-15T16:57:17.282Z,22.73
2022-10-15T16:59:45.194Z,22.60
2022-10-15T17:02:13.129Z,25.73
2022-10-15T17:04:41.022Z,24.13
2022-10-15T17:07:10.277Z,23.10
2022-10-15T17:09:38.967Z,22.63
2022-10-15T17:12:06.957Z,22.23
2022-10-15T17:14:37.907Z,20.13
2022-10-15T17:17:07.693Z,19.63
2022-10-15T17:19:35.868Z,21.10
2022-10-15T17:22:03.785Z,19.80
2022-10-15T17:24:33.093Z,19.90
2022-10-15T17:27:01.022Z,18.57
2022-10-15T17:29:32.464Z,18.57
2022-10-15T17:32:01.837Z,18.20
2022-10-15T17:34:30.027Z,17.37
2022-10-15T17:36:58.112Z,17.87
2022-10-15T17:39:26.065Z,19.03
2022-10-15T17:41:55.660Z,19.30
2022-10-15T17:44:23.569Z,18.57
2022-10-15T17:46:52.718Z,19.23
2022-10-15T17:49:20.935Z,21.03
2022-10-15T17:51:49.013Z,20.97
2022-10-15T17:54:17.186Z,21.77
2022-10-15T17:56:45.105Z,24.40
2022-10-15T17:59:14.370Z,25.83
2022-10-15T18:01:57.885Z,21.20
2022-10-15T18:04:27.501Z,21.97
2022-10-15T18:06:55.409Z,21.47
2022-10-15T18:09:23.354Z,21.20
2022-10-15T18:11:51.273Z,20.87
2022-10-15T18:16:53.700Z,22.63
2022-10-15T18:19:21.968Z,22.13
2022-10-15T18:21:50.127Z,26.50
2022-10-15T18:24:21.643Z,23.07
2022-10-15T18:26:50.472Z,20.90
2022-10-15T18:29:20.197Z,25.07
2022-10-15T18:31:52.206Z,24.37
2022-10-15T18:34:22.882Z,21.27
2022-10-15T18:36:50.805Z,21.30
2022-10-15T18:39:18.716Z,21.93
2022-10-15T18:41:46.769Z,23.03
2022-10-15T18:44:17.048Z,22.77
2022-10-15T18:46:46.328Z,24.43
2022-10-15T18:49:15.861Z,21.77
2022-10-15T18:51:45.823Z,20.00
2022-10-15T18:54:14.553Z,20.63
2022-10-15T18:56:42.450Z,19.33
2022-10-15T18:59:10.707Z,18.20
2022-10-15T19:01:41.695Z,18.33
2022-10-15T19:04:13.581Z,18.03
2022-10-15T19:06:43.306Z,18.40
2022-10-15T19:09:12.628Z,19.07
2022-10-15T19:11:42.419Z,21.10
2022-10-15T19:14:10.608Z,27.83
2022-10-15T19:16:38.509Z,31.97
2022-10-15T19:19:07.030Z,24.87
2022-10-15T19:21:37.561Z,23.07
2022-10-15T19:24:06.513Z,20.97
2022-10-15T19:26:34.614Z,17.13
2022-10-15T19:29:03.426Z,22.60
2022-10-15T19:31:33.811Z,29.50
2022-10-15T19:34:02.001Z,24.53
2022-10-15T19:36:33.066Z,19.90
2022-10-15T19:39:04.881Z,16.67
2022-10-15T19:41:32.829Z,15.73
2022-10-15T19:44:00.697Z,16.00
2022-10-15T19:46:29.314Z,15.50
2022-10-15T19:48:57.519Z,20.37
2022-10-15T19:51:25.470Z,20.80
2022-10-15T19:53:54.341Z,17.00
2022-10-15T19:56:24.322Z,18.03
2022-10-15T19:58:55.641Z,19.87
2022-10-15T20:01:23.834Z,19.30
2022-10-15T20:03:51.961Z,19.40
2022-10-15T20:06:20.813Z,19.30
2022-10-15T20:08:49.240Z,25.30
2022-10-15T20:11:18.960Z,26.13
2022-10-15T20:13:48.828Z,27.33
2022-10-15T20:16:18.501Z,23.40
2022-10-15T20:18:48.850Z,24.37
2022-10-15T20:21:17.420Z,22.00
2022-10-15T20:23:47.792Z,21.80
2022-10-15T20:26:16.836Z,20.83
2022-10-15T20:28:46.214Z,19.43
2022-10-15T20:31:18.794Z,19.00
2022-10-15T20:33:46.701Z,17.47
2022-10-15T20:36:21.188Z,18.77
2022-10-15T20:38:52.230Z,18.07
2022-10-15T20:41:20.713Z,18.37
2022-10-15T20:43:53.888Z,17.23
2022-10-15T20:46:26.792Z,16.50
2022-10-15T20:48:56.792Z,19.33
2022-10-15T20:51:28.384Z,20.73
2022-10-15T20:53:58.670Z,22.40
2022-10-15T20:56:26.717Z,22.87
2022-10-15T20:58:54.871Z,21.77
2022-10-15T21:01:24.193Z,21.93
2022-10-15T21:03:52.137Z,21.83
2022-10-15T21:06:20.699Z,21.67
2022-10-15T21:08:48.820Z,21.87
2022-10-15T21:11:16.979Z,21.93
2022-10-15T21:13:44.970Z,21.93
2022-10-15T21:16:13.009Z,22.63
2022-10-15T21:18:42.323Z,23.60
2022-10-15T21:21:12.470Z,23.10
2022-10-15T21:23:42.207Z,22.70
2022-10-15T21:26:12.250Z,24.27
2022-10-15T21:28:40.879Z,24.20
2022-10-15T21:31:10.114Z,25.20
2022-10-15T21:33:38.566Z,25.33
2022-10-15T21:36:21.659Z,23.47
2022-10-15T21:38:50.151Z,22.77
2022-10-15T21:41:18.035Z,24.37
2022-10-15T21:43:45.952Z,24.50
2022-10-15T21:46:15.370Z,26.23
2022-10-15T21:48:43.974Z,24.87
2022-10-15T21:51:13.558Z,23.33
2022-10-15T21:53:43.161Z,23.20
2022-10-15T21:56:11.325Z,23.30
2022-10-15T21:58:41.216Z,24.13
2022-10-15T22:01:13.553Z,22.60
2022-10-15T22:03:44.416Z,22.40
2022-10-15T22:06:13.044Z,21.80
2022-10-15T22:08:42.437Z,21.67
2022-10-15T22:11:12.721Z,23.57
2022-10-15T22:13:41.770Z,22.93
2022-10-15T22:16:10.526Z,22.40
2022-10-15T22:18:38.700Z,23.07
2022-10-15T22:21:15.206Z,22.73
2022-10-15T22:23:45.909Z,22.73
2022-10-15T22:26:14.629Z,22.87
2022-10-15T22:28:43.023Z,20.57
2022-10-15T22:31:12.949Z,21.47
2022-10-15T22:33:41.764Z,21.87
2022-10-15T22:36:14.445Z,20.80
2022-10-15T22:38:44.593Z,21.37
2022-10-15T22:41:13.443Z,21.00
2022-10-15T22:43:41.745Z,21.70
2022-10-15T22:46:10.240Z,21.07
2022-10-15T22:48:39.878Z,21.53
2022-10-15T22:51:09.390Z,21.57
2022-10-15T22:53:37.637Z,20.83
2022-10-15T22:56:09.290Z,20.97
2022-10-15T22:58:37.708Z,22.10
2022-10-15T23:01:11.172Z,22.77
2022-10-15T23:03:39.738Z,21.67
2022-10-15T23:06:08.032Z,20.90
2022-10-15T23:08:36.245Z,22.10
2022-10-15T23:11:10.202Z,21.77
2022-10-15T23:13:38.824Z,22.10
2022-10-15T23:16:12.877Z,21.57
2022-10-15T23:18:41.169Z,22.53
2022-10-15T23:21:14.688Z,21.93
2022-10-15T23:23:43.376Z,22.00
2022-10-15T23:26:14.992Z,21.70
2022-10-15T23:28:43.748Z,22.60
2022-10-15T23:31:17.002Z,22.13
2022-10-15T23:33:45.112Z,22.30
2022-10-15T23:36:13.044Z,22.47
2022-10-15T23:38:41.002Z,23.30
2022-10-15T23:41:10.453Z,23.10
2022-10-15T23:43:40.541Z,22.97
2022-10-15T23:46:09.428Z,23.13
2022-10-15T23:48:37.309Z,23.30
2022-10-15T23:51:13.390Z,23.63
2022-10-15T23:53:41.727Z,24.57
2022-10-15T23:56:09.918Z,23.83
2022-10-15T23:58:39.317Z,24.40
